createdAt,value
2023-03-04T00:02:16.680Z,47.90
2023-03-04T00:04:43.312Z,47.20
2023-03-04T00:07:10.127Z,47.80
2023-03-04T00:09:36.782Z,47.80
2023-03-04T00:12:03.594Z,47.70
2023-03-04T00:14:30.642Z,47.80
2023-03-04T00:16:57.302Z,47.70
2023-03-04T00:19:23.989Z,47.70
2023-03-04T00:21:50.659Z,47.80
2023-03-04T00:24:17.301Z,47.70
2023-03-04T00:26:43.942Z,47.80
2023-03-04T00:29:10.596Z,47.60
2023-03-04T00:31:37.334Z,47.70
2023-03-04T00:34:04.045Z,47.60
2023-03-04T00:36:30.755Z,47.60
2023-03-04T00:38:57.371Z,47.60
2023-03-04T00:41:23.993Z,47.60
2023-03-04T00:43:50.839Z,47.60
2023-03-04T00:46:17.557Z,47.80
2023-03-04T00:48:44.190Z,47.80
2023-03-04T00:51:10.770Z,47.80
2023-03-04T00:53:37.371Z,47.60
2023-03-04T00:56:04.138Z,47.60
2023-03-04T00:58:31.031Z,47.70
2023-03-04T01:00:57.649Z,47.80
2023-03-04T01:03:26.730Z,47.10
2023-03-04T01:05:53.339Z,47.70
2023-03-04T01:08:19.939Z,47.70
2023-03-04T01:10:48.413Z,47.70
2023-03-04T01:13:15.050Z,47.60
2023-03-04T01:15:41.718Z,47.60
2023-03-04T01:18:08.576Z,47.60
2023-03-04T01:20:35.277Z,47.60
2023-03-04T01:23:01.922Z,47.50
2023-03-04T01:25:28.521Z,47.50
2023-03-04T01:27:55.242Z,47.50
2023-03-04T01:30:21.928Z,47.50
2023-03-04T01:32:48.544Z,47.50
2023-03-04T01:35:15.283Z,47.60
2023-03-04T01:37:41.917Z,47.50
2023-03-04T01:40:09.742Z,47.50
2023-03-04T01:42:36.760Z,47.80
2023-03-04T01:45:05.037Z,47.50
2023-03-04T01:47:34.454Z,47.40
2023-03-04T01:50:04.042Z,47.50
2023-03-04T01:52:30.828Z,47.40
2023-03-04T01:54:57.752Z,47.50
2023-03-04T01:57:26.326Z,47.40
2023-03-04T02:00:19.781Z,47.40
2023-03-04T02:02:49.966Z,47.50
2023-03-04T02:05:17.350Z,47.40
2023-03-04T02:07:44.008Z,47.40
2023-03-04T02:10:11.216Z,47.40
2023-03-04T02:12:38.125Z,47.60
2023-03-04T02:15:05.936Z,47.40
2023-03-04T02:17:32.905Z,47.50
2023-03-04T02:20:38.409Z,47.40
2023-03-04T02:23:31.000Z,46.90
2023-03-04T02:26:19.183Z,47.40
2023-03-04T02:28:47.665Z,47.40
2023-03-04T02:31:35.414Z,47.40
2023-03-04T02:34:15.036Z,46.80
2023-03-04T02:36:43.134Z,47.40
2023-03-04T02:39:25.261Z,47.30
2023-03-04T02:41:53.914Z,47.30
2023-03-04T02:44:23.571Z,47.30
2023-03-04T02:46:51.424Z,47.30
2023-03-04T02:49:19.014Z,47.40
2023-03-04T02:51:46.346Z,47.40
2023-03-04T02:54:21.415Z,46.80
2023-03-04T02:56:49.871Z,47.30
2023-03-04T02:59:17.012Z,47.30
2023-03-04T03:01:43.752Z,47.30
2023-03-04T03:04:10.380Z,47.30
2023-03-04T03:06:37.175Z,47.30
2023-03-04T03:09:03.981Z,47.30
2023-03-04T03:11:31.042Z,47.30
2023-03-04T03:13:57.974Z,47.20
2023-03-04T03:16:24.738Z,47.30
2023-03-04T03:18:51.689Z,47.20
2023-03-04T03:21:18.751Z,47.20
2023-03-04T03:23:45.380Z,47.20
2023-03-04T03:26:12.008Z,47.20
2023-03-04T03:28:38.814Z,47.20
2023-03-04T03:31:05.817Z,47.20
2023-03-04T03:33:32.786Z,47.20
2023-03-04T03:36:00.237Z,47.30
2023-03-04T03:38:27.768Z,47.20
2023-03-04T03:40:54.442Z,47.20
2023-03-04T03:43:21.111Z,47.20
2023-03-04T03:45:47.826Z,47.20
2023-03-04T03:48:14.537Z,47.20
2023-03-04T03:50:41.137Z,47.30
2023-03-04T03:53:07.709Z,47.20
2023-03-04T03:55:34.365Z,47.30
2023-03-04T03:58:00.955Z,47.10
2023-03-04T04:00:27.614Z,47.20
2023-03-04T04:02:56.888Z,47.10
2023-03-04T04:05:23.579Z,47.20
2023-03-04T04:07:51.393Z,47.10
2023-03-04T04:10:19.166Z,47.10
2023-03-04T04:12:45.780Z,47.10
2023-03-04T04:15:12.942Z,47.10
2023-03-04T04:17:39.943Z,47.10
2023-03-04T04:20:08.153Z,47.10
2023-03-04T04:22:34.823Z,47.10
2023-03-04T04:25:01.619Z,47.10
2023-03-04T04:27:28.333Z,47.40
2023-03-04T04:29:54.981Z,47.10
2023-03-04T04:32:21.700Z,47.10
2023-03-04T04:34:48.340Z,47.20
2023-03-04T04:37:14.977Z,47.10
2023-03-04T04:39:41.610Z,47.10
2023-03-04T04:42:10.822Z,47.10
2023-03-04T04:44:38.807Z,47.10
2023-03-04T04:47:07.128Z,47.10
2023-03-04T04:49:33.845Z,47.10
2023-03-04T04:52:00.498Z,47.10
2023-03-04T04:54:27.123Z,47.10
2023-03-04T04:56:54.126Z,47.10
2023-03-04T04:59:21.224Z,47.10
2023-03-04T05:01:48.107Z,47.10
2023-03-04T05:04:14.750Z,47.10
2023-03-04T05:06:41.475Z,47.10
2023-03-04T05:09:08.281Z,47.10
2023-03-04T05:11:34.915Z,47.10
2023-03-04T05:14:01.778Z,47.10
2023-03-04T05:16:28.388Z,47.00
2023-03-04T05:18:55.022Z,47.10
2023-03-04T05:21:21.667Z,47.10
2023-03-04T05:23:48.318Z,47.10
2023-03-04T05:26:17.620Z,47.00
2023-03-04T05:28:45.014Z,47.00
2023-03-04T05:31:12.118Z,47.00
2023-03-04T05:33:39.309Z,47.10
2023-03-04T05:36:07.059Z,47.00
2023-03-04T05:38:33.933Z,47.00
2023-03-04T05:41:03.690Z,47.00
2023-03-04T05:43:31.575Z,47.00
2023-03-04T05:45:58.306Z,47.00
2023-03-04T05:48:24.936Z,47.00
2023-03-04T05:50:59.958Z,47.00
2023-03-04T05:53:26.611Z,47.00
2023-03-04T05:55:53.274Z,47.00
2023-03-04T05:58:20.466Z,47.00
2023-03-04T06:00:47.318Z,47.00
2023-03-04T06:03:19.021Z,47.00
2023-03-04T06:05:45.618Z,39.60
2023-03-04T06:08:12.989Z,39.30
2023-03-04T06:10:41.030Z,40.40
2023-03-04T06:13:08.471Z,41.30
2023-03-04T06:15:35.446Z,41.50
2023-03-04T06:18:02.141Z,42.40
2023-03-04T06:20:28.804Z,42.30
2023-03-04T06:22:55.500Z,41.60
2023-03-04T06:25:22.416Z,40.90
2023-03-04T06:27:50.717Z,41.00
2023-03-04T06:30:18.374Z,41.20
2023-03-04T06:32:46.048Z,41.20
2023-03-04T06:35:13.370Z,41.50
2023-03-04T06:37:40.101Z,41.50
2023-03-04T06:40:07.750Z,41.80
2023-03-04T06:42:35.551Z,42.00
2023-03-04T06:45:03.290Z,42.10
2023-03-04T06:47:30.412Z,42.40
2023-03-04T06:49:57.062Z,42.60
2023-03-04T06:52:24.320Z,42.90
2023-03-04T06:54:51.180Z,42.80
2023-03-04T06:57:18.066Z,42.90
2023-03-04T06:59:44.654Z,43.00
2023-03-04T07:02:14.189Z,43.10
2023-03-04T07:04:40.889Z,43.70
2023-03-04T07:07:07.611Z,43.40
2023-03-04T07:09:34.287Z,43.40
2023-03-04T07:12:00.915Z,43.60
2023-03-04T07:14:27.935Z,43.70
2023-03-04T07:16:55.012Z,43.80
2023-03-04T07:19:21.868Z,43.90
2023-03-04T07:21:48.510Z,43.90
2023-03-04T07:24:15.788Z,44.00
2023-03-04T07:26:42.497Z,44.10
2023-03-04T07:29:09.143Z,44.10
2023-03-04T07:31:36.812Z,44.30
2023-03-04T07:34:06.265Z,44.30
2023-03-04T07:36:35.282Z,44.30
2023-03-04T07:39:03.526Z,44.30
2023-03-04T07:41:30.864Z,44.30
2023-03-04T07:43:58.476Z,44.50
2023-03-04T07:46:25.643Z,44.50
2023-03-04T07:48:52.752Z,44.50
2023-03-04T07:51:21.086Z,45.20
2023-03-04T07:53:51.767Z,44.60
2023-03-04T07:56:21.159Z,44.60
2023-03-04T07:58:48.450Z,44.70
2023-03-04T08:01:17.931Z,44.70
2023-03-04T08:03:45.016Z,44.80
2023-03-04T08:06:15.817Z,44.80
2023-03-04T08:08:45.886Z,45.50
2023-03-04T08:11:18.810Z,45.00
2023-03-04T08:13:45.532Z,45.10
2023-03-04T08:16:19.188Z,45.10
2023-03-04T08:18:48.801Z,45.20
2023-03-04T08:21:19.194Z,45.20
2023-03-04T08:23:46.505Z,45.30
2023-03-04T08:26:18.487Z,45.40
2023-03-04T08:28:45.783Z,45.50
2023-03-04T08:31:16.896Z,45.60
2023-03-04T08:33:43.836Z,45.80
2023-03-04T08:36:11.044Z,45.70
2023-03-04T08:38:38.179Z,45.80
2023-03-04T08:41:05.126Z,45.80
2023-03-04T08:43:33.283Z,45.80
2023-03-04T08:45:59.991Z,45.90
2023-03-04T08:48:27.182Z,46.10
2023-03-04T08:50:53.989Z,46.30
2023-03-04T08:53:21.038Z,46.40
2023-03-04T08:55:48.888Z,46.50
2023-03-04T08:58:15.486Z,46.60
2023-03-04T09:00:48.097Z,46.70
2023-03-04T09:03:16.109Z,46.80
2023-03-04T09:05:44.485Z,46.90
2023-03-04T09:08:11.163Z,47.30
2023-03-04T09:10:37.808Z,47.70
2023-03-04T09:13:04.561Z,47.80
2023-03-04T09:15:31.309Z,47.90
2023-03-04T09:17:57.933Z,47.90
2023-03-04T09:20:24.680Z,47.90
2023-03-04T09:22:51.344Z,48.00
2023-03-04T09:25:17.966Z,47.90
2023-03-04T09:27:44.650Z,48.00
2023-03-04T09:30:12.242Z,48.10
2023-03-04T09:32:39.234Z,47.90
2023-03-04T09:35:06.414Z,47.90
2023-03-04T09:37:33.859Z,47.80
2023-03-04T09:40:00.469Z,47.60
2023-03-04T09:42:42.776Z,47.60
2023-03-04T09:45:17.155Z,47.50
2023-03-04T09:47:46.055Z,47.50
2023-03-04T09:50:13.378Z,47.60
2023-03-04T09:53:14.294Z,47.60
2023-03-04T09:55:43.698Z,47.60
2023-03-04T09:58:47.925Z,47.80
2023-03-04T10:01:33.478Z,47.80
2023-03-04T10:04:12.242Z,47.20
2023-03-04T10:06:40.717Z,47.70
2023-03-04T10:09:19.297Z,47.80
2023-03-04T10:12:11.360Z,47.90
2023-03-04T10:14:44.951Z,48.00
2023-03-04T10:17:21.803Z,48.00
2023-03-04T10:20:07.766Z,48.10
2023-03-04T10:22:44.518Z,48.00
2023-03-04T10:25:25.218Z,47.80
2023-03-04T10:27:54.938Z,48.30
2023-03-04T10:30:44.593Z,48.20
2023-03-04T10:33:19.363Z,48.40
2023-03-04T10:36:03.083Z,48.40
2023-03-04T10:38:36.110Z,48.40
2023-03-04T10:41:17.491Z,48.50
2023-03-04T10:44:01.184Z,48.50
2023-03-04T10:46:28.242Z,48.50
2023-03-04T10:48:55.465Z,49.10
2023-03-04T10:51:28.003Z,48.90
2023-03-04T10:54:26.347Z,48.60
2023-03-04T10:56:59.067Z,48.60
2023-03-04T10:59:46.139Z,48.60
2023-03-04T11:02:31.307Z,48.60
2023-03-04T11:05:18.792Z,48.60
2023-03-04T11:07:57.931Z,48.70
2023-03-04T11:10:31.163Z,48.70
2023-03-04T11:13:07.368Z,48.70
2023-03-04T11:15:53.474Z,48.70
2023-03-04T11:18:38.784Z,48.70
2023-03-04T11:21:07.666Z,48.70
2023-03-04T11:23:43.197Z,48.70
2023-03-04T11:26:16.229Z,48.70
2023-03-04T11:28:52.356Z,48.70
2023-03-04T11:31:26.267Z,48.70
2023-03-04T11:34:13.772Z,48.70
2023-03-04T11:37:03.457Z,48.70
2023-03-04T11:39:37.330Z,48.70
2023-03-04T11:42:25.569Z,48.70
2023-03-04T11:44:52.683Z,48.70
2023-03-04T11:47:48.456Z,48.70
2023-03-04T11:50:19.831Z,48.70
2023-03-04T11:53:10.245Z,48.70
2023-03-04T11:55:45.647Z,48.70
2023-03-04T11:58:39.355Z,48.70
2023-03-04T12:01:15.162Z,48.80
2023-03-04T12:04:16.683Z,48.80
2023-03-04T12:06:56.008Z,48.80
2023-03-04T12:09:52.016Z,48.90
2023-03-04T12:12:59.816Z,49.00
2023-03-04T12:15:51.560Z,49.20
2023-03-04T12:18:43.137Z,49.20
2023-03-04T12:21:54.532Z,49.30
2023-03-04T12:24:39.336Z,49.30
2023-03-04T12:27:31.199Z,49.20
2023-03-04T12:30:06.874Z,49.20
2023-03-04T12:32:49.436Z,49.10
2023-03-04T12:35:40.913Z,49.20
2023-03-04T12:38:33.357Z,49.10
2023-03-04T12:41:02.737Z,49.10
2023-03-04T12:43:53.635Z,49.20
2023-03-04T12:46:41.064Z,49.10
2023-03-04T12:49:44.372Z,49.10
2023-03-04T12:52:18.137Z,49.20
2023-03-04T12:54:51.482Z,48.60
2023-03-04T12:57:23.208Z,49.20
2023-03-04T13:00:29.742Z,49.20
2023-03-04T13:03:24.051Z,49.10
2023-03-04T13:06:15.745Z,49.00
2023-03-04T13:08:53.741Z,49.10
2023-03-04T13:11:26.354Z,49.00
2023-03-04T13:14:27.152Z,49.20
2023-03-04T13:23:14.975Z,48.90
2023-03-04T13:25:45.307Z,49.40
2023-03-04T13:28:30.882Z,49.70
2023-03-04T13:30:59.448Z,49.40
2023-03-04T13:33:26.160Z,48.90
2023-03-04T13:36:26.239Z,49.30
2023-03-04T13:39:24.460Z,49.40
2023-03-04T13:41:53.642Z,49.40
2023-03-04T13:44:35.713Z,49.40
2023-03-04T13:47:14.938Z,49.50
2023-03-04T13:49:41.793Z,49.40
2023-03-04T13:52:38.360Z,49.40
2023-03-04T13:55:40.173Z,49.40
2023-03-04T13:58:25.945Z,49.60
2023-03-04T14:00:55.053Z,50.20
2023-03-04T14:03:27.552Z,50.10
2023-03-04T14:06:18.144Z,49.80
2023-03-04T14:08:46.301Z,49.70
2023-03-04T14:11:24.700Z,49.90
2023-03-04T14:13:52.207Z,49.90
2023-03-04T14:16:23.559Z,49.90
2023-03-04T14:19:06.533Z,49.60
2023-03-04T14:21:34.808Z,49.80
2023-03-04T14:24:14.814Z,49.60
2023-03-04T14:26:41.523Z,49.50
2023-03-04T14:29:27.357Z,49.50
2023-03-04T14:31:54.583Z,49.30
2023-03-04T14:34:49.543Z,49.30
2023-03-04T14:37:22.578Z,49.20
2023-03-04T14:39:57.282Z,49.20
2023-03-04T14:42:30.016Z,49.20
2023-03-04T14:44:59.763Z,49.10
2023-03-04T14:47:38.013Z,49.00
2023-03-04T14:50:17.500Z,49.10
2023-03-04T14:53:04.121Z,49.10
2023-03-04T14:55:30.795Z,49.00
2023-03-04T14:58:22.048Z,49.00
2023-03-04T15:00:49.244Z,49.00
2023-03-04T15:03:28.922Z,49.00
2023-03-04T15:05:58.264Z,49.00
2023-03-04T15:08:37.519Z,49.00
2023-03-04T15:11:06.317Z,49.00
2023-03-04T15:13:51.316Z,49.10
2023-03-04T15:16:23.165Z,49.00
2023-03-04T15:19:03.398Z,49.10
2023-03-04T15:21:41.524Z,49.10
2023-03-04T15:24:11.054Z,49.00
2023-03-04T15:26:40.277Z,48.90
2023-03-04T15:29:18.791Z,49.20
2023-03-04T15:31:49.751Z,49.10
2023-03-04T15:34:19.583Z,49.20
2023-03-04T15:36:49.691Z,49.20
2023-03-04T15:39:17.837Z,49.00
2023-03-04T15:41:46.466Z,49.20
2023-03-04T15:44:13.387Z,49.80
2023-03-04T15:46:40.050Z,49.90
2023-03-04T15:49:06.710Z,50.00
2023-03-04T15:51:33.361Z,50.00
2023-03-04T15:54:01.168Z,50.00
2023-03-04T15:56:30.670Z,50.00
2023-03-04T15:59:17.969Z,50.00
2023-03-04T16:01:44.963Z,50.00
2023-03-04T16:04:16.674Z,50.10
2023-03-04T16:06:48.448Z,51.10
2023-03-04T16:09:17.715Z,51.30
2023-03-04T16:11:47.344Z,51.20
2023-03-04T16:14:17.692Z,50.90
2023-03-04T16:16:46.403Z,51.10
2023-03-04T16:19:13.021Z,50.90
2023-03-04T16:21:40.581Z,51.00
2023-03-04T16:24:18.703Z,50.60
2023-03-04T16:26:45.365Z,50.60
2023-03-04T16:29:11.979Z,50.80
2023-03-04T16:31:38.612Z,50.60
2023-03-04T16:34:05.198Z,50.80
2023-03-04T16:36:32.183Z,50.80
2023-03-04T16:39:03.630Z,50.80
2023-03-04T16:41:30.623Z,50.70
2023-03-04T16:44:00.067Z,50.40
2023-03-04T16:46:26.807Z,50.50
2023-03-04T16:48:53.713Z,50.60
2023-03-04T16:51:22.873Z,50.30
2023-03-04T16:53:54.687Z,50.10
2023-03-04T16:56:21.705Z,50.10
2023-03-04T16:58:48.827Z,50.10
2023-03-04T17:01:24.224Z,50.00
2023-03-04T17:03:50.978Z,50.00
2023-03-04T17:06:18.188Z,50.10
2023-03-04T17:08:45.329Z,50.00
2023-03-04T17:11:16.092Z,50.10
2023-03-04T17:13:42.833Z,49.50
2023-03-04T17:16:11.059Z,50.00
2023-03-04T17:18:38.805Z,50.00
2023-03-04T17:21:08.054Z,49.90
2023-03-04T17:23:35.096Z,49.80
2023-03-04T17:26:02.424Z,49.80
2023-03-04T17:28:29.373Z,49.80
2023-03-04T17:30:56.047Z,49.80
2023-03-04T17:33:23.223Z,49.80
2023-03-04T17:35:49.986Z,50.30
2023-03-04T17:38:16.969Z,49.70
2023-03-04T17:40:43.999Z,49.70
2023-03-04T17:43:13.910Z,48.80
2023-03-04T17:45:42.123Z,49.70
2023-03-04T17:48:17.121Z,49.70
2023-03-04T17:50:51.411Z,49.60
2023-03-04T17:53:18.627Z,49.60
2023-03-04T17:55:52.546Z,49.60
2023-03-04T17:58:19.631Z,49.50
2023-03-04T18:00:46.859Z,49.50
2023-03-04T18:03:14.714Z,49.60
2023-03-04T18:05:41.407Z,49.40
2023-03-04T18:08:08.000Z,49.40
2023-03-04T18:10:34.951Z,49.40
2023-03-04T18:13:01.654Z,49.40
2023-03-04T18:15:28.295Z,49.40
2023-03-04T18:17:54.931Z,49.40
2023-03-04T18:20:21.641Z,49.40
2023-03-04T18:22:48.336Z,49.40
2023-03-04T18:25:14.983Z,49.30
2023-03-04T18:27:42.513Z,49.40
2023-03-04T18:30:13.419Z,49.40
2023-03-04T18:32:51.308Z,49.60
2023-03-04T18:35:19.586Z,49.70
2023-03-04T18:37:46.530Z,49.80
2023-03-04T18:40:13.878Z,49.70
2023-03-04T18:42:40.518Z,49.70
2023-03-04T18:45:07.895Z,49.90
2023-03-04T18:47:34.563Z,49.90
2023-03-04T18:50:01.288Z,49.90
2023-03-04T18:52:28.547Z,50.00
2023-03-04T18:54:55.176Z,50.10
2023-03-04T18:57:21.909Z,50.10
2023-03-04T19:00:03.756Z,50.20
2023-03-04T19:02:40.247Z,50.20
2023-03-04T19:05:11.254Z,50.20
2023-03-04T19:07:38.158Z,50.30
2023-03-04T19:10:05.394Z,50.30
2023-03-04T19:12:33.861Z,50.40
2023-03-04T19:15:01.231Z,50.50
2023-03-04T19:17:31.795Z,50.50
2023-03-04T19:20:02.462Z,50.50
2023-03-04T19:22:29.434Z,50.60
2023-03-04T19:24:56.096Z,50.60
2023-03-04T19:27:22.921Z,50.70
2023-03-04T19:29:49.848Z,50.70
2023-03-04T19:32:19.738Z,50.60
2023-03-04T19:34:47.178Z,50.80
2023-03-04T19:37:15.454Z,50.70
2023-03-04T19:39:43.464Z,50.70
2023-03-04T19:42:11.412Z,50.70
2023-03-04T19:44:38.894Z,50.80
2023-03-04T19:47:05.681Z,50.80
2023-03-04T19:49:32.789Z,50.80
2023-03-04T19:52:00.440Z,50.90
2023-03-04T19:54:30.647Z,51.10
2023-03-04T19:56:58.490Z,51.00
2023-03-04T19:59:25.381Z,51.10
2023-03-04T20:01:52.081Z,51.10
2023-03-04T20:04:21.339Z,51.20
2023-03-04T20:06:50.391Z,51.20
2023-03-04T20:09:18.265Z,51.20
2023-03-04T20:11:57.218Z,50.90
2023-03-04T20:14:25.018Z,49.80
2023-03-04T20:16:51.690Z,50.00
2023-03-04T20:19:18.290Z,50.20
2023-03-04T20:21:44.978Z,50.00
2023-03-04T20:24:11.785Z,50.00
2023-03-04T20:26:39.396Z,50.00
2023-03-04T20:29:06.064Z,50.20
2023-03-04T20:31:35.992Z,49.80
2023-03-04T20:34:02.733Z,49.20
2023-03-04T20:36:30.362Z,50.00
2023-03-04T20:39:02.550Z,49.90
2023-03-04T20:41:30.752Z,49.30
2023-03-04T20:43:57.428Z,49.50
2023-03-04T20:46:39.747Z,49.40
2023-03-04T20:49:10.261Z,49.40
2023-03-04T20:51:37.388Z,49.20
2023-03-04T20:54:05.250Z,48.70
2023-03-04T20:56:32.783Z,49.20
2023-03-04T20:59:03.407Z,49.20
2023-03-04T21:01:31.125Z,49.20
2023-03-04T21:03:59.069Z,49.20
2023-03-04T21:06:28.202Z,49.20
2023-03-04T21:08:56.150Z,49.30
2023-03-04T21:11:26.002Z,49.40
2023-03-04T21:13:57.467Z,49.40
2023-03-04T21:16:29.935Z,49.30
2023-03-04T21:18:56.702Z,49.10
2023-03-04T21:21:26.392Z,49.20
2023-03-04T21:23:55.320Z,49.20
2023-03-04T21:26:23.272Z,49.10
2023-03-04T21:28:53.097Z,49.10
2023-03-04T21:31:28.458Z,49.00
2023-03-04T21:33:58.474Z,48.60
2023-03-04T21:36:25.099Z,49.00
2023-03-04T21:38:53.011Z,49.00
2023-03-04T21:41:22.225Z,49.00
2023-03-04T21:43:49.658Z,49.10
2023-03-04T21:46:17.258Z,49.00
2023-03-04T21:48:44.776Z,49.00
2023-03-04T21:51:14.564Z,49.20
2023-03-04T21:53:43.165Z,49.00
2023-03-04T21:56:11.414Z,49.00
2023-03-04T21:58:41.908Z,48.90
2023-03-04T22:01:16.834Z,49.10
2023-03-04T22:03:43.558Z,49.10
2023-03-04T22:06:11.972Z,49.10
2023-03-04T22:08:39.594Z,49.00
2023-03-04T22:11:08.193Z,49.00
2023-03-04T22:13:35.095Z,49.00
2023-03-04T22:16:02.126Z,49.00
2023-03-04T22:18:28.866Z,49.00
2023-03-04T22:21:04.659Z,49.00
2023-03-04T22:23:31.765Z,49.00
2023-03-04T22:26:32.519Z,49.00
2023-03-04T22:29:00.947Z,48.90
2023-03-04T22:31:33.187Z,49.00
2023-03-04T22:34:03.090Z,49.00
2023-03-04T22:36:31.114Z,49.00
2023-03-04T22:38:58.168Z,49.00
2023-03-04T22:41:24.938Z,48.90
2023-03-04T22:43:51.875Z,48.40
2023-03-04T22:46:24.782Z,48.80
2023-03-04T22:48:53.760Z,48.80
2023-03-04T22:51:20.782Z,49.00
2023-03-04T22:53:48.426Z,49.00
2023-03-04T22:56:15.963Z,48.90
2023-03-04T22:58:44.606Z,48.90
2023-03-04T23:01:13.114Z,48.80
2023-03-04T23:03:41.583Z,48.90
2023-03-04T23:06:20.840Z,48.80
2023-03-04T23:08:49.358Z,48.80
2023-03-04T23:11:22.543Z,48.80
2023-03-04T23:13:50.430Z,48.90
2023-03-04T23:16:18.196Z,48.80
2023-03-04T23:18:47.173Z,48.80
2023-03-04T23:21:16.835Z,48.80
2023-03-04T23:23:43.711Z,48.20
2023-03-04T23:26:24.866Z,48.70
2023-03-04T23:28:51.789Z,48.70
2023-03-04T23:31:18.782Z,48.70
2023-03-04T23:33:47.730Z,48.30
2023-03-04T23:36:17.036Z,48.80
2023-03-04T23:38:46.084Z,48.80
2023-03-04T23:41:14.571Z,48.80
2023-03-04T23:43:41.269Z,48.20
2023-03-04T23:46:13.780Z,48.80
2023-03-04T23:48:45.401Z,48.80
2023-03-04T23:51:16.958Z,48.80
2023-03-04T23:53:43.956Z,48.30
2023-03-04T23:56:12.807Z,48.80
2023-03-04T23:58:39.439Z,48.80
